Time;durP1;ratioP1;P1;durP2;ratioP2;P2;SDS_P1;SDS_P2;PMS_P1;PMS_P2;Temp;Humidity;BMP_temperature;BMP_pressure;BME280_temperature;BME280_humidity;BME280_pressure;Samples;Min_cycle;Max_cycle;Signal;HPM_P1;HPM_P2
2023/04/19 00:02:15;;;;;;;5.03;4.27;;;11.50;53.40;;;13.95;39.25;103010.56;5034198;28;20602;-60
2023/04/19 00:04:43;;;;;;;6.00;4.40;;;11.40;52.90;;;13.90;39.38;103013.63;5034247;28;20222;-62
2023/04/19 00:07:10;;;;;;;7.90;4.50;;;11.40;52.70;;;13.87;39.50;103013.06;5034083;28;20195;-63
2023/04/19 00:09:38;;;;;;;5.27;4.40;;;11.40;53.00;;;13.83;39.57;103009.03;5033665;28;20233;-62
2023/04/19 00:12:05;;;;;;;7.13;5.37;;;11.30;52.90;;;13.75;39.59;103014.19;5034815;28;20198;-63
2023/04/19 00:14:33;;;;;;;6.57;4.83;;;11.30;53.00;;;13.70;39.79;103005.81;5033932;28;20232;-64
2023/04/19 00:17:00;;;;;;;7.33;4.80;;;11.30;53.20;;;13.62;40.09;103008.34;5034395;28;20191;-61
2023/04/19 00:19:27;;;;;;;6.80;4.30;;;11.20;53.40;;;13.58;40.32;103013.06;5034191;28;20201;-62
2023/04/19 00:21:54;;;;;;;6.00;3.97;;;11.10;53.50;;;13.53;40.20;103010.81;5038213;28;20209;-61
2023/04/19 00:24:21;;;;;;;5.27;3.90;;;11.10;53.90;;;13.54;40.95;103007.22;5053909;28;20217;-64
2023/04/19 00:26:48;;;;;;;5.37;4.33;;;11.00;54.50;;;13.57;40.98;103006.91;5054516;28;20247;-62
2023/04/19 00:29:15;;;;;;;4.70;4.30;;;11.00;55.00;;;13.63;41.19;103004.69;5054086;28;20214;-63
2023/04/19 00:31:43;;;;;;;6.57;4.80;;;11.00;55.40;;;13.65;41.33;103002.75;5053643;28;20190;-62
2023/04/19 00:34:10;;;;;;;6.83;4.57;;;11.10;56.50;;;13.68;41.66;103003.31;5053813;28;20216;-64
2023/04/19 00:36:37;;;;;;;8.17;5.27;;;11.10;55.90;;;13.67;41.57;103008.75;5053449;28;20240;-64
2023/04/19 00:39:04;;;;;;;7.77;4.57;;;11.10;56.00;;;13.67;41.64;102996.34;5053465;28;20186;-62
2023/04/19 00:41:31;;;;;;;5.43;4.93;;;11.10;56.10;;;13.67;41.71;103000.81;5053445;28;20194;-60
2023/04/19 00:43:58;;;;;;;4.97;4.47;;;11.10;56.10;;;13.61;41.63;102996.91;5037136;28;20217;-65
2023/04/19 00:46:26;;;;;;;5.40;4.83;;;11.00;55.80;;;13.57;41.66;103006.91;5033632;28;20194;-64
2023/04/19 00:48:55;;;;;;;6.70;4.77;;;11.00;56.10;;;13.55;41.73;103002.75;5034954;28;20730;-62
2023/04/19 00:51:22;;;;;;;5.17;4.23;;;11.00;56.20;;;13.50;41.70;103005.81;5032552;28;20198;-63
2023/04/19 00:53:49;;;;;;;5.63;4.77;;;10.90;56.00;;;13.42;42.04;102992.44;5033570;28;20197;-63
2023/04/19 00:56:20;;;;;;;5.67;4.60;;;10.90;56.30;;;13.39;41.93;103003.28;5034047;28;20194;-63
2023/04/19 00:58:48;;;;;;;7.23;4.97;;;10.80;56.50;;;13.36;42.14;103000.91;5050118;28;20563;-61
2023/04/19 01:01:15;;;;;;;8.20;4.70;;;10.80;56.60;;;13.30;42.45;102998.81;5035044;28;20202;-62
2023/04/19 01:03:43;;;;;;;5.63;4.70;;;10.80;56.90;;;13.29;42.67;102991.84;5035224;28;20256;-63
2023/04/19 01:06:12;;;;;;;5.30;4.80;;;10.70;57.40;;;13.31;42.91;102995.19;5038350;28;20667;-64
2023/04/19 01:08:39;;;;;;;8.57;4.87;;;10.70;57.60;;;13.31;42.95;102995.19;5041433;28;20535;-64
2023/04/19 01:11:07;;;;;;;5.67;4.40;;;10.70;57.30;;;13.29;43.04;102994.50;5036787;28;20217;-61
2023/04/19 01:13:34;;;;;;;5.20;4.70;;;10.70;57.60;;;13.31;43.04;102995.19;5032933;28;20214;-62
2023/04/19 01:16:01;;;;;;;5.43;4.10;;;10.70;57.90;;;13.35;43.29;102991.31;5033221;28;20722;-61
2023/04/19 01:18:31;;;;;;;6.17;4.80;;;10.70;57.90;;;13.40;43.27;102998.84;5033293;28;20558;-63
2023/04/19 01:20:58;;;;;;;4.90;4.40;;;10.80;58.20;;;13.43;43.18;102994.09;5035621;28;20236;-60
2023/04/19 01:23:26;;;;;;;6.00;5.40;;;10.80;58.20;;;13.44;43.34;102990.50;5036879;28;20201;-63
2023/04/19 01:25:53;;;;;;;7.10;4.70;;;10.80;58.40;;;13.47;43.46;102990.22;5037133;28;20214;-63
2023/04/19 01:28:20;;;;;;;7.60;4.90;;;10.90;58.70;;;13.51;43.37;102991.59;5035904;28;20257;-63
2023/04/19 01:30:49;;;;;;;5.30;4.80;;;10.90;58.50;;;13.53;43.35;102989.66;5037149;28;20226;-63
2023/04/19 01:33:17;;;;;;;7.03;5.60;;;10.90;58.50;;;13.53;43.45;102984.38;5036815;28;20194;-63
2023/04/19 01:35:44;;;;;;;6.70;4.90;;;11.00;58.60;;;13.53;43.41;102992.31;5037179;28;20289;-64
2023/04/19 01:38:11;;;;;;;7.30;5.07;;;11.00;58.50;;;13.52;43.46;102993.28;5037030;28;20191;-62
2023/04/19 01:40:39;;;;;;;5.57;5.07;;;10.90;58.50;;;13.52;43.50;102998.59;5036499;28;20702;-64
2023/04/19 01:43:07;;;;;;;7.13;4.70;;;11.00;58.50;;;13.51;43.58;102991.59;5037125;28;20209;-63
2023/04/19 01:45:35;;;;;;;7.63;5.20;;;11.00;58.60;;;13.49;43.54;102988.28;5051722;28;20282;-63
2023/04/19 01:48:03;;;;;;;5.57;4.90;;;10.90;58.30;;;13.44;43.55;102995.78;5035856;28;20215;-63
2023/04/19 01:50:31;;;;;;;5.33;4.80;;;10.90;58.70;;;13.41;43.74;102996.03;5036661;28;20211;-63
2023/04/19 01:52:58;;;;;;;5.40;4.57;;;10.90;58.60;;;13.34;43.70;102997.56;5036634;28;20194;-63
2023/04/19 01:55:25;;;;;;;5.80;5.17;;;10.80;58.50;;;13.27;43.36;102993.81;5036257;28;20222;-62
2023/04/19 01:57:54;;;;;;;7.60;5.50;;;10.80;58.60;;;13.21;43.87;102986.44;5036790;28;20190;-60
2023/04/19 02:00:22;;;;;;;8.33;5.87;;;10.70;59.20;;;13.16;43.86;102979.88;5036323;28;20201;-63
2023/04/19 02:02:49;;;;;;;5.90;5.30;;;10.60;58.40;;;13.11;43.91;102987.34;5036364;28;20191;-64
2023/04/19 02:05:16;;;;;;;6.40;5.10;;;10.60;58.50;;;13.05;43.81;102996.63;5035648;28;20218;-64
2023/04/19 02:07:43;;;;;;;6.00;4.47;;;10.50;58.50;;;13.00;43.86;102995.38;5036489;28;20205;-59
2023/04/19 02:10:10;;;;;;;5.70;5.13;;;10.40;58.60;;;12.95;44.29;102987.84;5036067;28;20215;-64
2023/04/19 02:12:37;;;;;;;6.33;4.90;;;10.40;59.00;;;12.93;44.19;102992.44;5036472;28;20647;-62
2023/04/19 02:15:07;;;;;;;7.50;4.83;;;10.40;59.30;;;12.93;44.00;102995.09;5034625;28;20220;-64
2023/04/19 02:17:35;;;;;;;5.63;5.13;;;10.40;59.20;;;12.93;44.61;102989.81;5051434;28;20194;-63
2023/04/19 02:20:03;;;;;;;7.87;6.20;;;10.40;59.40;;;12.93;44.39;102984.50;5035227;28;20210;-62
2023/04/19 02:22:30;;;;;;;7.07;5.63;;;10.40;59.50;;;12.92;44.37;102985.47;5034976;28;20194;-62
2023/04/19 02:24:58;;;;;;;6.63;5.20;;;10.40;59.30;;;12.92;44.41;102985.47;5035963;28;20207;-63
2023/04/19 02:27:25;;;;;;;6.27;5.67;;;10.40;59.40;;;12.93;44.09;102988.97;5034517;28;20204;-62
2023/04/19 02:29:52;;;;;;;7.20;5.53;;;10.40;59.20;;;12.90;43.95;102990.06;5036156;28;20675;-62
2023/04/19 02:32:20;;;;;;;7.73;5.40;;;10.30;58.90;;;12.81;44.13;102983.75;5035756;28;20205;-63
2023/04/19 02:34:47;;;;;;;7.37;5.63;;;10.20;58.80;;;12.70;44.07;102986.50;5035433;28;20215;-62
2023/04/19 02:37:14;;;;;;;8.03;6.23;;;10.10;59.20;;;12.60;44.20;102992.72;5035511;28;20195;-63
2023/04/19 02:39:41;;;;;;;7.77;6.33;;;10.00;59.50;;;12.52;44.98;102987.25;5051019;28;20195;-65
2023/04/19 02:42:08;;;;;;;7.90;6.60;;;9.90;61.10;;;12.48;44.70;102985.84;5035642;28;20659;-63
2023/04/19 02:44:35;;;;;;;8.67;6.20;;;9.90;61.40;;;12.42;44.70;102991.63;5050571;28;20241;-62
2023/04/19 02:47:02;;;;;;;7.53;5.70;;;9.80;61.50;;;12.37;45.31;102983.28;5035611;28;20198;-61
2023/04/19 02:49:35;;;;;;;6.43;5.57;;;9.70;62.10;;;12.34;45.37;102984.38;5050702;28;20225;-58
2023/04/19 02:52:03;;;;;;;7.73;6.93;;;9.70;62.10;;;12.28;44.93;102987.53;5035611;28;20257;-61
2023/04/19 02:54:32;;;;;;;7.70;6.20;;;9.60;62.30;;;12.22;45.34;102983.59;5037255;28;20260;-63
2023/04/19 02:56:59;;;;;;;9.60;7.13;;;9.60;62.40;;;12.17;45.71;102980.50;5035328;28;20198;-60
2023/04/19 02:59:26;;;;;;;8.00;6.20;;;9.50;62.60;;;12.13;46.20;102984.38;5034804;28;20511;-63
2023/04/19 03:01:53;;;;;;;9.00;6.57;;;9.50;63.40;;;12.10;45.75;102986.44;5034712;28;20194;-63
2023/04/19 03:04:20;;;;;;;7.50;6.17;;;9.40;63.00;;;12.07;45.95;102979.63;5034152;28;20215;-63
2023/04/19 03:06:50;;;;;;;6.73;6.00;;;9.40;63.70;;;12.05;46.09;102980.72;5034784;28;20274;-63
2023/04/19 03:09:17;;;;;;;9.27;6.10;;;9.40;63.20;;;12.01;46.27;102985.41;5036325;28;20241;-62
2023/04/19 03:11:45;;;;;;;7.23;6.07;;;9.40;63.40;;;12.00;46.19;102989.03;5037731;28;20752;-62
2023/04/19 03:14:12;;;;;;;9.03;6.30;;;9.30;63.40;;;11.98;46.08;102984.84;5037022;28;20311;-62
2023/04/19 03:16:39;;;;;;;7.47;6.17;;;9.30;62.90;;;11.92;46.02;102991.47;5037567;28;20236;-63
2023/04/19 03:19:07;;;;;;;8.63;6.77;;;9.30;63.20;;;11.88;46.57;102984.78;5037629;28;20214;-61
2023/04/19 03:21:34;;;;;;;7.37;6.10;;;9.20;63.80;;;11.87;46.95;102977.81;5052068;28;20256;-64
2023/04/19 03:24:02;;;;;;;8.13;6.10;;;9.20;64.40;;;11.88;46.70;102979.50;5050237;28;20226;-62
2023/04/19 03:26:30;;;;;;;8.77;6.23;;;9.30;63.50;;;11.87;46.60;102983.09;5054682;28;20191;-62
2023/04/19 03:28:57;;;;;;;9.23;6.60;;;9.20;63.90;;;11.86;46.98;102972.69;5055747;28;20575;-62
2023/04/19 03:31:24;;;;;;;8.53;6.13;;;9.20;64.10;;;11.85;46.50;102974.47;5055384;28;20216;-64
2023/04/19 03:33:51;;;;;;;7.67;6.50;;;9.20;63.80;;;11.86;46.99;102976.13;5054326;28;20276;-62
2023/04/19 03:36:18;;;;;;;9.03;6.33;;;9.30;64.20;;;11.87;46.66;102976.97;5055163;28;20194;-62
2023/04/19 03:38:45;;;;;;;7.40;6.30;;;9.30;64.10;;;11.89;47.13;102970.59;5054030;28;20221;-64
2023/04/19 03:41:19;;;;;;;7.70;6.33;;;9.30;64.10;;;11.92;47.01;102975.63;5053686;28;20189;-62
2023/04/19 03:43:46;;;;;;;9.30;5.90;;;9.40;64.10;;;11.97;46.48;102973.44;5040788;28;20190;-63
2023/04/19 03:46:13;;;;;;;8.03;6.30;;;9.40;63.40;;;12.00;46.23;102975.84;5034324;28;20547;-64
2023/04/19 03:48:40;;;;;;;8.07;5.53;;;9.40;63.10;;;12.01;45.93;102974.84;5034796;28;20221;-63
2023/04/19 03:51:07;;;;;;;6.73;5.90;;;9.40;63.30;;;12.05;46.17;102976.25;5034702;28;20214;-63
2023/04/19 03:53:35;;;;;;;8.97;5.57;;;9.40;63.30;;;12.06;45.83;102977.09;5034605;28;20203;-63
2023/04/19 03:56:02;;;;;;;7.53;5.93;;;9.40;62.50;;;12.01;45.80;102974.84;5033955;28;20205;-63
2023/04/19 03:58:30;;;;;;;9.77;6.73;;;9.40;62.50;;;11.97;45.86;102968.16;5034149;28;20202;-63
2023/04/19 04:00:58;;;;;;;6.80;5.40;;;9.40;63.10;;;11.96;46.08;102971.75;5034247;28;20188;-63
2023/04/19 04:03:24;;;;;;;8.50;5.60;;;9.40;63.30;;;11.96;46.52;102971.75;5035638;28;20198;-63
2023/04/19 04:05:52;;;;;;;8.70;5.53;;;9.40;63.10;;;11.97;45.97;102976.09;5054023;28;20217;-64
2023/04/19 04:08:19;;;;;;;8.33;5.73;;;9.40;62.80;;;11.97;46.41;102976.09;5053099;28;20300;-64
2023/04/19 04:10:46;;;;;;;8.23;6.00;;;9.40;62.90;;;11.99;45.97;102968.88;5034792;28;20229;-63
2023/04/19 04:13:13;;;;;;;6.23;5.17;;;9.40;63.00;;;12.00;46.24;102967.09;5037208;28;20205;-63
2023/04/19 04:15:42;;;;;;;8.00;6.47;;;9.40;63.00;;;12.02;45.97;102976.53;5037351;28;20631;-61
2023/04/19 04:18:09;;;;;;;6.23;5.50;;;9.40;62.80;;;12.01;45.61;102980.13;5037573;28;20260;-64
2023/04/19 04:20:37;;;;;;;8.33;7.07;;;9.40;62.50;;;12.00;46.36;102970.56;5053267;28;20269;-63
2023/04/19 04:23:04;;;;;;;10.10;6.73;;;9.40;63.10;;;12.00;46.20;102975.84;5053507;28;20191;-64
2023/04/19 04:25:31;;;;;;;7.57;5.73;;;9.40;63.10;;;12.02;46.14;102973.06;5035426;28;20226;-64
2023/04/19 04:27:59;;;;;;;7.07;6.27;;;9.40;62.80;;;12.03;46.22;102978.19;5035723;28;20248;-64
2023/04/19 04:30:27;;;;;;;6.87;5.93;;;9.40;63.00;;;12.04;45.58;102973.75;5052162;28;20214;-62
2023/04/19 04:32:59;;;;;;;7.57;5.40;;;9.40;62.50;;;12.03;45.37;102978.19;5034097;28;20195;-63
2023/04/19 04:35:28;;;;;;;10.63;6.07;;;9.40;62.20;;;12.01;45.82;102979.28;5034668;28;20281;-63
2023/04/19 04:37:55;;;;;;;7.57;5.10;;;9.40;62.20;;;11.97;45.90;102973.44;5034062;28;20198;-63
2023/04/19 04:40:22;;;;;;;6.63;5.60;;;9.40;62.90;;;11.97;45.99;102976.09;5033860;28;20190;-64
2023/04/19 04:42:51;;;;;;;6.17;5.57;;;9.30;62.50;;;11.93;45.75;102976.47;5034311;28;20202;-64
2023/04/19 04:45:18;;;;;;;7.20;5.87;;;9.30;62.10;;;11.86;45.60;102976.13;5033289;28;20217;-62
2023/04/19 04:47:46;;;;;;;5.63;5.03;;;9.20;62.40;;;11.83;45.54;102976.41;5033910;28;20210;-62
2023/04/19 04:50:14;;;;;;;8.13;6.30;;;9.20;63.00;;;11.83;46.08;102981.69;5033337;28;20190;-62
2023/04/19 04:52:41;;;;;;;8.17;5.63;;;9.20;63.50;;;11.84;46.20;102980.69;5033704;28;20200;-63
2023/04/19 04:55:09;;;;;;;9.97;6.57;;;9.20;63.50;;;11.86;45.84;102983.22;5035740;28;20218;-64
2023/04/19 04:57:36;;;;;;;7.13;6.10;;;9.20;63.20;;;11.86;46.29;102986.69;5037300;28;20751;-62
2023/04/19 05:00:05;;;;;;;6.37;5.77;;;9.20;63.30;;;11.86;46.10;102981.41;5037521;28;20214;-64
2023/04/19 05:02:32;;;;;;;6.30;5.70;;;9.20;62.80;;;11.86;45.69;102981.41;5036106;28;20202;-63
2023/04/19 05:04:59;;;;;;;6.97;6.27;;;9.20;62.70;;;11.81;45.94;102978.34;5036646;28;20217;-61
2023/04/19 05:07:28;;;;;;;7.80;6.13;;;9.10;63.00;;;11.80;46.63;102981.09;5036903;28;20199;-63
2023/04/19 05:09:55;;;;;;;6.73;5.27;;;9.10;63.70;;;11.83;46.16;102979.03;5035278;28;20194;-62
2023/04/19 05:12:21;;;;;;;6.67;5.23;;;9.20;63.20;;;11.84;45.85;102979.88;5036739;28;20217;-62
2023/04/19 05:14:48;;;;;;;6.90;5.73;;;9.20;63.30;;;11.83;45.71;102980.84;5034733;28;20317;-62
2023/04/19 05:17:15;;;;;;;7.87;5.27;;;9.20;63.10;;;11.82;45.90;102980.00;5037136;28;20194;-64
2023/04/19 05:19:42;;;;;;;7.77;5.70;;;9.10;63.30;;;11.86;46.64;102986.69;5036720;28;20191;-61
2023/04/19 05:22:10;;;;;;;8.13;5.27;;;9.20;63.70;;;11.86;45.92;102983.22;5037040;28;20191;-61
2023/04/19 05:24:38;;;;;;;7.17;5.67;;;9.20;63.20;;;11.88;46.12;102979.50;5036465;28;20221;-67
2023/04/19 05:27:08;;;;;;;8.00;5.43;;;9.20;63.90;;;11.90;46.01;102977.56;5035355;28;20214;-63
2023/04/19 05:29:35;;;;;;;7.67;5.70;;;9.20;63.20;;;11.95;45.62;102979.81;5036425;28;20564;-63
2023/04/19 05:32:02;;;;;;;6.30;5.20;;;9.20;63.30;;;11.97;46.07;102972.59;5036379;28;20242;-65
2023/04/19 05:34:30;;;;;;;11.80;6.80;;;9.30;63.40;;;11.99;46.08;102978.59;5036117;28;20210;-64
2023/04/19 05:36:57;;;;;;;7.53;5.80;;;9.30;63.10;;;12.02;45.60;102976.53;5036707;28;20193;-63
2023/04/19 05:39:24;;;;;;;6.60;5.17;;;9.30;63.00;;;12.06;45.78;102982.38;5034718;28;20226;-62
2023/04/19 05:41:52;;;;;;;7.20;5.83;;;9.30;63.00;;;12.11;45.95;102980.19;5036413;28;20332;-65
2023/04/19 05:44:19;;;;;;;7.80;6.73;;;9.30;63.10;;;12.14;45.52;102980.78;5036183;28;20222;-62
2023/04/19 05:46:46;;;;;;;29.57;24.50;;;9.40;63.00;;;12.17;45.37;102991.06;5035341;28;20198;-63
2023/04/19 05:49:13;;;;;;;13.43;7.40;;;9.40;62.90;;;12.22;45.67;102982.75;5035766;28;20201;-63
2023/04/19 05:51:40;;;;;;;7.40;6.17;;;9.40;62.90;;;12.24;45.39;102986.94;5035930;28;20210;-62
2023/04/19 05:54:11;;;;;;;11.80;8.77;;;9.50;62.60;;;12.25;45.39;102977.22;5036056;28;20280;-61
2023/04/19 05:56:38;;;;;;;6.93;5.93;;;9.40;62.90;;;12.29;45.88;102973.34;5036113;28;20191;-64
2023/04/19 05:59:07;;;;;;;6.03;5.20;;;9.50;62.90;;;12.35;45.14;102977.28;5035539;28;20563;-67
2023/04/19 06:01:34;;;;;;;5.97;5.37;;;9.50;62.80;;;12.43;44.96;102985.41;5035986;28;20582;-61
2023/04/19 06:04:01;;;;;;;8.83;6.23;;;9.60;63.30;;;12.45;45.14;102978.19;5034640;28;20215;-62
2023/04/19 06:06:29;;;;;;;7.13;5.57;;;9.70;62.60;;;12.53;44.87;102980.97;5035519;28;20193;-64
2023/04/19 06:08:56;;;;;;;9.30;7.17;;;9.80;62.50;;;12.59;44.68;102981.31;5035750;28;20282;-62
2023/04/19 06:11:23;;;;;;;9.00;6.87;;;9.80;62.00;;;12.65;44.97;102977.28;5034453;28;20686;-64
2023/04/19 06:14:00;;;;;;;6.77;6.07;;;9.90;61.90;;;12.66;44.69;102973.69;5049341;28;20210;-61
2023/04/19 06:16:29;;;;;;;6.97;5.03;;;9.90;61.70;;;12.73;44.45;102982.75;5035326;28;20195;-69
2023/04/19 06:18:56;;;;;;;6.70;5.27;;;9.90;61.70;;;12.76;44.59;102982.50;5050902;28;20201;-62
2023/04/19 06:21:23;;;;;;;7.23;4.83;;;9.90;61.70;;;12.83;44.67;102983.63;5035503;28;20196;-64
2023/04/19 06:23:50;;;;;;;6.50;4.80;;;10.00;60.60;;;12.90;44.28;102975.03;5035957;28;20202;-64
2023/04/19 06:26:17;;;;;;;6.23;4.23;;;10.10;60.40;;;12.98;44.34;102979.63;5050710;28;20202;-63
2023/04/19 06:28:44;;;;;;;6.90;5.57;;;10.20;60.40;;;13.07;44.07;102978.88;5036060;28;20191;-62
2023/04/19 06:31:25;;;;;;;5.67;4.97;;;10.20;60.20;;;13.20;44.02;102979.44;5026304;28;20754;-64
2023/04/19 06:33:53;;;;;;;6.23;5.07;;;10.30;59.80;;;13.31;43.75;102979.31;5030990;28;20730;-64
2023/04/19 06:36:20;;;;;;;7.60;5.63;;;10.40;59.50;;;13.40;43.52;102977.69;5031142;28;20594;-62
2023/04/19 06:38:48;;;;;;;7.97;5.27;;;10.50;59.60;;;13.50;43.45;102978.53;5033417;28;20675;-60
2023/04/19 06:41:16;;;;;;;6.97;4.73;;;10.60;59.60;;;13.62;43.07;102984.53;5028424;28;20198;-64
2023/04/19 06:43:43;;;;;;;5.77;4.80;;;10.70;59.30;;;13.65;42.78;102971.00;5031500;28;20215;-63
2023/04/19 06:46:12;;;;;;;8.37;4.63;;;10.70;58.80;;;13.71;42.72;102973.09;5041358;28;20705;-63
2023/04/19 06:48:40;;;;;;;5.80;4.60;;;10.80;58.70;;;13.79;42.65;102975.84;5032905;28;20198;-62
2023/04/19 06:51:09;;;;;;;6.07;4.60;;;10.90;58.90;;;13.89;42.58;102968.75;5032215;28;20305;-63
2023/04/19 06:53:37;;;;;;;6.20;5.10;;;10.90;58.70;;;14.02;42.46;102964.00;5040715;28;20202;-60
2023/04/19 06:56:05;;;;;;;5.80;4.77;;;11.00;58.40;;;14.12;42.38;102975.44;5032832;28;20194;-62
2023/04/19 06:58:32;;;;;;;9.23;5.43;;;11.10;58.30;;;14.21;42.12;102970.09;5032116;28;20220;-63
2023/04/19 07:01:03;;;;;;;6.33;4.47;;;11.20;58.20;;;14.31;41.86;102970.09;5033542;28;20219;-60
2023/04/19 07:03:31;;;;;;;6.27;4.40;;;11.20;58.20;;;14.41;41.72;102968.25;5020187;28;20290;-62
2023/04/19 07:05:58;;;;;;;4.60;4.03;;;11.30;58.00;;;14.51;41.59;102970.88;5037221;28;20272;-62
2023/04/19 07:08:28;;;;;;;4.20;3.37;;;11.40;57.60;;;14.54;41.12;102976.72;5033375;28;20214;-59
2023/04/19 07:11:14;;;;;;;4.37;3.80;;;11.50;57.00;;;14.57;41.06;102963.16;5029907;28;20210;-64
2023/04/19 07:13:43;;;;;;;6.37;3.40;;;11.60;56.90;;;14.70;40.68;102966.34;5048492;28;20195;-64
2023/04/19 07:16:15;;;;;;;4.67;3.43;;;11.70;56.70;;;14.82;40.45;102959.84;5015747;28;20220;-65
2023/04/19 07:18:46;;;;;;;3.57;2.77;;;11.80;56.30;;;14.99;40.12;102960.03;5030514;28;20605;-65
2023/04/19 07:21:14;;;;;;;3.93;3.40;;;11.90;56.20;;;15.11;39.95;102959.69;5031457;28;20210;-63
2023/04/19 07:23:42;;;;;;;15.20;12.60;;;12.00;55.80;;;15.19;39.48;102957.13;5032971;28;20195;-64
2023/04/19 07:26:09;;;;;;;5.67;4.00;;;12.10;55.50;;;15.38;39.23;102953.50;5029695;28;20776;-64
2023/04/19 07:28:38;;;;;;;4.03;3.63;;;12.20;55.00;;;15.87;38.63;102955.63;5032096;28;20194;-61
2023/04/19 07:31:05;;;;;;;6.33;5.17;;;12.40;55.00;;;16.46;37.74;102951.34;5031487;28;20198;-60
2023/04/19 07:33:33;;;;;;;4.97;3.50;;;12.70;54.50;;;17.26;37.26;102948.16;5044586;28;20190;-62
2023/04/19 07:36:00;;;;;;;11.07;8.73;;;13.10;54.80;;;18.30;36.05;102944.66;5031857;28;20222;-62
2023/04/19 07:38:27;;;;;;;3.50;2.63;;;13.70;54.50;;;19.21;32.77;102942.25;5045436;28;20218;-63
2023/04/19 07:40:55;;;;;;;3.07;2.23;;;14.30;50.70;;;19.73;31.48;102940.53;5032480;28;20597;-62
2023/04/19 07:43:22;;;;;;;2.43;2.23;;;14.90;47.60;;;20.23;30.50;102938.06;5028906;28;20199;-61
2023/04/19 07:45:49;;;;;;;3.20;2.77;;;15.50;46.60;;;20.85;30.55;102932.28;5032644;28;20226;-62
2023/04/19 07:48:16;;;;;;;3.10;2.20;;;16.10;45.70;;;21.46;29.01;102931.75;5030748;28;20539;-62
2023/04/19 07:50:43;;;;;;;3.27;2.30;;;16.60;43.20;;;21.89;27.36;102929.03;5027510;28;20210;-62
2023/04/19 07:53:10;;;;;;;3.60;1.90;;;17.10;41.20;;;22.28;27.17;102926.59;5030735;28;20588;-61
2023/04/19 07:55:37;;;;;;;2.90;2.60;;;17.50;39.90;;;22.84;27.13;102922.75;5031851;28;20213;-60
2023/04/19 07:58:06;;;;;;;2.80;2.40;;;18.00;40.20;;;23.51;25.54;102924.53;5029710;28;20202;-60
2023/04/19 08:00:35;;;;;;;5.50;2.03;;;18.50;37.70;;;24.12;25.23;102917.91;5030719;28;20735;-63
2023/04/19 08:03:03;;;;;;;2.30;1.80;;;19.00;37.10;;;24.92;24.69;102916.56;5030768;28;20194;-61
2023/04/19 08:05:30;;;;;;;2.93;2.33;;;19.50;37.10;;;25.94;24.02;102908.09;5045089;28;20226;-61
2023/04/19 08:07:57;;;;;;;2.50;2.30;;;20.10;37.50;;;27.03;22.80;102903.47;5028135;28;20221;-63
2023/04/19 08:10:27;;;;;;;2.63;1.97;;;20.70;34.60;;;27.97;21.32;102900.66;5026722;28;20209;-63
2023/04/19 08:12:54;;;;;;;2.43;1.77;;;21.20;33.70;;;28.61;20.40;102896.06;5031999;28;20655;-63
2023/04/19 08:15:33;;;;;;;3.83;1.87;;;21.70;32.90;;;28.93;19.90;102894.50;5031615;28;20218;-62
2023/04/19 08:18:06;;;;;;;3.23;2.80;;;22.30;31.40;;;29.26;19.71;102893.75;5028475;28;20194;-62
2023/04/19 08:20:33;;;;;;;4.27;2.53;;;22.70;31.00;;;29.49;18.85;102894.41;5031683;28;20256;-65
2023/04/19 08:23:00;;;;;;;2.60;2.07;;;23.00;29.20;;;29.39;19.39;102888.81;5031396;28;20242;-64
2023/04/19 08:25:44;;;;;;;23.77;21.33;;;23.40;29.20;;;29.95;19.44;102881.53;5029635;28;20226;-62
2023/04/19 08:28:11;;;;;;;23.27;20.93;;;23.70;29.90;;;30.47;18.41;102882.75;5031731;28;20694;-63
2023/04/19 08:30:40;;;;;;;11.80;9.70;;;24.00;28.50;;;31.07;18.64;102881.75;5032497;28;20194;-62
2023/04/19 08:33:07;;;;;;;3.43;2.60;;;24.40;29.30;;;31.68;16.18;102872.13;5028313;28;20214;-64
2023/04/19 08:35:35;;;;;;;2.17;2.07;;;24.80;26.50;;;31.67;14.82;102868.59;5033995;28;20245;-63
2023/04/19 08:38:03;;;;;;;1.40;1.30;;;25.00;23.30;;;31.45;15.12;102866.00;5031895;28;20237;-63
2023/04/19 08:40:30;;;;;;;9.77;2.60;;;25.20;23.70;;;31.49;14.22;102860.03;5028289;28;20297;-67
2023/04/19 08:42:58;;;;;;;2.13;1.67;;;25.30;22.50;;;31.50;14.75;102864.41;5033797;28;20202;-59
2023/04/19 08:45:27;;;;;;;2.20;1.80;;;25.40;22.40;;;30.96;14.76;102867.22;5029463;28;20217;-61
2023/04/19 08:48:00;;;;;;;2.30;1.50;;;25.30;22.10;;;30.97;15.06;102857.16;5031768;28;20221;-61
2023/04/19 08:50:29;;;;;;;2.40;2.00;;;25.40;22.70;;;31.28;14.95;102864.50;5026871;28;20237;-65
2023/04/19 08:53:06;;;;;;;2.20;1.70;;;25.40;22.50;;;31.45;14.75;102859.75;5026524;28;20590;-63
2023/04/19 08:55:57;;;;;;;2.40;1.93;;;25.40;21.90;;;31.00;14.15;102859.38;5016624;28;20246;-64
2023/04/19 08:58:36;;;;;;;2.80;1.60;;;25.40;21.20;;;30.55;14.60;102855.09;5027466;28;20225;-64
2023/04/19 09:01:24;;;;;;;2.17;1.60;;;25.20;20.90;;;30.24;15.29;102855.78;5027870;28;20202;-63
2023/04/19 09:03:55;;;;;;;1.93;1.50;;;25.10;21.70;;;30.58;14.95;102864.63;5030274;28;20202;-63
2023/04/19 09:06:42;;;;;;;1.70;1.60;;;25.20;22.20;;;31.11;14.33;102842.03;5030823;28;20222;-63
2023/04/19 09:09:15;;;;;;;2.00;1.60;;;25.20;21.40;;;31.37;14.08;102843.84;5023305;28;20684;-63
2023/04/19 09:11:45;;;;;;;2.63;1.90;;;25.40;21.80;;;31.57;13.43;102846.72;5028863;28;20214;-64
2023/04/19 09:14:15;;;;;;;3.57;1.80;;;25.40;20.80;;;30.63;13.61;102840.22;5027029;28;20229;-63
2023/04/19 09:16:43;;;;;;;1.83;1.70;;;25.10;20.20;;;30.11;14.24;102834.44;5029534;28;20222;-62
2023/04/19 09:19:12;;;;;;;3.17;1.93;;;25.10;20.70;;;29.77;14.57;102831.03;5021176;28;20672;-62
2023/04/19 09:21:52;;;;;;;2.80;1.77;;;24.90;20.90;;;29.40;14.87;102836.19;5042153;28;20182;-64
2023/04/19 09:24:37;;;;;;;2.97;1.60;;;24.60;21.10;;;29.73;15.03;102835.28;5020358;28;20268;-61
2023/04/19 09:27:28;;;;;;;2.47;1.90;;;24.60;21.50;;;30.20;14.75;102824.75;5022268;28;20194;-60
2023/04/19 09:29:57;;;;;;;1.97;1.70;;;24.70;21.30;;;30.31;14.81;102831.16;5029464;28;20277;-64
2023/04/19 09:32:25;;;;;;;1.90;1.70;;;24.70;21.20;;;29.98;14.89;102815.78;5030895;28;20620;-61
2023/04/19 09:34:56;;;;;;;2.13;1.80;;;24.70;21.30;;;30.19;15.01;102817.66;5030341;28;20210;-61
2023/04/19 09:37:25;;;;;;;2.60;1.77;;;24.90;21.70;;;30.62;15.08;102811.34;5020227;28;20626;-64
2023/04/19 09:40:23;;;;;;;2.23;1.80;;;25.00;21.60;;;30.32;14.35;102806.41;5011440;28;20253;-62
2023/04/19 09:42:51;;;;;;;1.50;1.40;;;24.90;20.90;;;29.97;14.49;102806.03;5032214;28;20236;-63
2023/04/19 09:45:21;;;;;;;2.37;1.90;;;24.90;20.80;;;30.11;14.98;102801.84;5033889;28;20228;-62
2023/04/19 09:48:01;;;;;;;4.00;1.73;;;24.80;21.10;;;29.69;14.30;102795.31;5035146;28;20906;-61
2023/04/19 09:50:34;;;;;;;2.30;1.77;;;24.60;21.10;;;29.46;15.16;102799.06;5034533;28;20254;-63
2023/04/19 09:53:21;;;;;;;2.07;1.77;;;24.50;21.60;;;29.31;15.22;102805.09;5031713;28;20284;-62
2023/04/19 09:55:49;;;;;;;3.03;1.70;;;24.40;21.50;;;29.29;14.71;102785.53;5031205;28;20226;-60
2023/04/19 09:58:27;;;;;;;1.73;1.63;;;24.40;21.10;;;29.86;15.40;102779.78;5032182;28;20309;-61
2023/04/19 10:01:11;;;;;;;3.73;1.80;;;24.60;21.70;;;30.57;14.34;102771.34;5030136;28;20659;-61
2023/04/19 10:03:44;;;;;;;3.37;1.70;;;24.90;21.30;;;30.80;14.72;102771.00;5030338;28;20214;-62
2023/04/19 10:06:15;;;;;;;1.57;1.43;;;25.10;21.30;;;31.34;13.98;102754.50;5031229;28;20198;-63
2023/04/19 10:09:04;;;;;;;1.60;1.50;;;25.40;21.10;;;32.14;13.66;102761.44;5029394;28;20566;-63
2023/04/19 10:11:37;;;;;;;2.07;1.60;;;25.80;21.10;;;32.31;13.13;102756.53;5033630;28;20206;-63
2023/04/19 10:14:08;;;;;;;1.50;1.40;;;25.90;19.90;;;31.99;12.46;102756.75;5028921;28;20226;-61
2023/04/19 10:16:37;;;;;;;1.83;1.70;;;26.00;18.50;;;31.39;12.67;102752.66;5034227;28;20910;-62
2023/04/19 10:19:08;;;;;;;2.67;1.77;;;25.80;18.20;;;30.79;12.48;102742.16;5029019;28;20285;-60
2023/04/19 10:21:40;;;;;;;3.77;1.87;;;25.60;18.20;;;30.66;13.38;102739.91;5028807;28;20226;-64
2023/04/19 10:24:12;;;;;;;5.93;1.70;;;25.60;18.70;;;31.07;12.98;102742.94;5044486;28;20302;-64